sensor_id;sensor_type;location;lat;lon;timestamp;pressure;altitude;pressure_sealevel;temperature;humidity
13058;BME280;6595;49.578;11.012;2022-09-02T00:00:34;986.291;;;20.37;88.6
13058;BME280;6595;49.578;11.012;2022-09-02T00:02:33;986.260;;;20.58;88.6
13058;BME280;6595;49.578;11.012;2022-09-02T00:04:35;986.243;;;20.44;88.6
13058;BME280;6595;49.578;11.012;2022-09-02T00:06:35;986.262;;;20.46;88.6
13058;BME280;6595;49.578;11.012;2022-09-02T00:08:34;986.261;;;20.59;88.6
13058;BME280;6595;49.578;11.012;2022-09-02T00:10:35;986.229;;;20.45;88.6
13058;BME280;6595;49.578;11.012;2022-09-02T00:12:34;986.221;;;20.42;88.6
13058;BME280;6595;49.578;11.012;2022-09-02T00:14:37;986.229;;;20.45;88.6
13058;BME280;6595;49.578;11.012;2022-09-02T00:16:34;986.208;;;20.52;88.6
13058;BME280;6595;49.578;11.012;2022-09-02T00:18:34;986.184;;;20.44;88.6
13058;BME280;6595;49.578;11.012;2022-09-02T00:20:34;986.199;;;20.35;88.6
13058;BME280;6595;49.578;11.012;2022-09-02T00:22:33;986.143;;;20.52;88.6
13058;BME280;6595;49.578;11.012;2022-09-02T00:24:34;986.157;;;20.37;88.6
13058;BME280;6595;49.578;11.012;2022-09-02T00:26:34;986.155;;;20.57;88.6
13058;BME280;6595;49.578;11.012;2022-09-02T00:28:34;986.125;;;20.63;88.6
13058;BME280;6595;49.578;11.012;2022-09-02T00:30:34;986.149;;;20.45;88.6
13058;BME280;6595;49.578;11.012;2022-09-02T00:32:34;986.125;;;20.51;88.6
13058;BME280;6595;49.578;11.012;2022-09-02T00:34:34;986.136;;;20.42;88.6
13058;BME280;6595;49.578;11.012;2022-09-02T00:36:35;986.126;;;20.30;88.6
13058;BME280;6595;49.578;11.012;2022-09-02T00:38:35;986.118;;;20.19;88.6
13058;BME280;6595;49.578;11.012;2022-09-02T00:40:35;986.101;;;20.11;88.6
13058;BME280;6595;49.578;11.012;2022-09-02T00:42:34;986.104;;;20.05;88.6
13058;BME280;6595;49.578;11.012;2022-09-02T00:44:33;986.082;;;20.24;88.6
13058;BME280;6595;49.578;11.012;2022-09-02T00:46:35;986.082;;;20.18;88.6
13058;BME280;6595;49.578;11.012;2022-09-02T00:48:33;986.136;;;19.97;88.6
13058;BME280;6595;49.578;11.012;2022-09-02T00:50:36;986.100;;;19.79;88.5
13058;BME280;6595;49.578;11.012;2022-09-02T00:52:36;986.114;;;19.97;88.6
13058;BME280;6595;49.578;11.012;2022-09-02T00:54:36;986.121;;;19.68;88.5
13058;BME280;6595;49.578;11.012;2022-09-02T00:56:37;986.137;;;19.14;88.5
13058;BME280;6595;49.578;11.012;2022-09-02T00:58:36;986.116;;;19.58;88.5
13058;BME280;6595;49.578;11.012;2022-09-02T01:00:38;986.107;;;19.67;88.5
13058;BME280;6595;49.578;11.012;2022-09-02T01:02:34;986.133;;;19.20;88.5
13058;BME280;6595;49.578;11.012;2022-09-02T01:04:34;986.140;;;19.24;88.5
13058;BME280;6595;49.578;11.012;2022-09-02T01:06:38;986.103;;;19.30;88.5
13058;BME280;6595;49.578;11.012;2022-09-02T01:08:36;986.091;;;19.61;88.5
13058;BME280;6595;49.578;11.012;2022-09-02T01:10:35;986.075;;;19.50;88.5
13058;BME280;6595;49.578;11.012;2022-09-02T01:12:35;986.026;;;19.60;88.5
13058;BME280;6595;49.578;11.012;2022-09-02T01:14:34;986.016;;;19.64;88.5
13058;BME280;6595;49.578;11.012;2022-09-02T01:16:38;986.009;;;19.64;88.5
13058;BME280;6595;49.578;11.012;2022-09-02T01:18:35;986.044;;;19.43;88.5
13058;BME280;6595;49.578;11.012;2022-09-02T01:20:35;986.017;;;19.38;88.5
13058;BME280;6595;49.578;11.012;2022-09-02T01:22:35;986.010;;;19.13;88.5
13058;BME280;6595;49.578;11.012;2022-09-02T01:24:35;986.026;;;19.17;88.5
13058;BME280;6595;49.578;11.012;2022-09-02T01:26:34;986.007;;;19.04;88.5
13058;BME280;6595;49.578;11.012;2022-09-02T01:28:34;986.007;;;19.08;88.5
13058;BME280;6595;49.578;11.012;2022-09-02T01:30:36;985.969;;;19.23;88.5
13058;BME280;6595;49.578;11.012;2022-09-02T01:32:35;986.011;;;19.08;88.5
13058;BME280;6595;49.578;11.012;2022-09-02T01:34:34;985.946;;;19.11;88.5
13058;BME280;6595;49.578;11.012;2022-09-02T01:36:36;985.987;;;19.02;88.5
13058;BME280;6595;49.578;11.012;2022-09-02T01:38:34;985.963;;;19.17;88.5
13058;BME280;6595;49.578;11.012;2022-09-02T01:40:35;985.926;;;19.01;88.5
13058;BME280;6595;49.578;11.012;2022-09-02T01:42:34;985.932;;;18.86;88.4
13058;BME280;6595;49.578;11.012;2022-09-02T01:44:34;985.911;;;18.92;88.4
13058;BME280;6595;49.578;11.012;2022-09-02T01:46:35;985.918;;;18.88;88.4
13058;BME280;6595;49.578;11.012;2022-09-02T01:48:34;985.862;;;18.84;88.4
13058;BME280;6595;49.578;11.012;2022-09-02T01:50:34;985.855;;;18.83;88.4
13058;BME280;6595;49.578;11.012;2022-09-02T01:52:35;985.872;;;18.81;88.4
13058;BME280;6595;49.578;11.012;2022-09-02T01:54:34;985.872;;;18.81;88.4
13058;BME280;6595;49.578;11.012;2022-09-02T01:56:34;985.897;;;18.57;88.4
13058;BME280;6595;49.578;11.012;2022-09-02T01:58:34;985.867;;;18.50;88.4
13058;BME280;6595;49.578;11.012;2022-09-02T02:00:34;985.879;;;18.69;88.4
13058;BME280;6595;49.578;11.012;2022-09-02T02:02:34;985.851;;;18.69;88.4
13058;BME280;6595;49.578;11.012;2022-09-02T02:04:33;985.849;;;18.64;88.4
13058;BME280;6595;49.578;11.012;2022-09-02T02:06:33;985.851;;;18.79;88.4
13058;BME280;6595;49.578;11.012;2022-09-02T02:08:34;985.840;;;18.71;88.4
13058;BME280;6595;49.578;11.012;2022-09-02T02:10:35;985.856;;;18.68;88.4
13058;BME280;6595;49.578;11.012;2022-09-02T02:12:34;985.909;;;18.71;88.4
13058;BME280;6595;49.578;11.012;2022-09-02T02:14:34;985.857;;;18.79;88.4
13058;BME280;6595;49.578;11.012;2022-09-02T02:16:34;985.842;;;18.70;88.4
13058;BME280;6595;49.578;11.012;2022-09-02T02:18:34;985.819;;;18.77;88.4
13058;BME280;6595;49.578;11.012;2022-09-02T02:20:34;985.774;;;18.33;88.4
13058;BME280;6595;49.578;11.012;2022-09-02T02:22:34;985.772;;;18.33;88.4
13058;BME280;6595;49.578;11.012;2022-09-02T02:24:34;985.801;;;18.29;88.4
13058;BME280;6595;49.578;11.012;2022-09-02T02:26:34;985.825;;;18.33;88.4
13058;BME280;6595;49.578;11.012;2022-09-02T02:28:34;985.797;;;18.41;88.4
13058;BME280;6595;49.578;11.012;2022-09-02T02:30:34;985.804;;;18.52;88.4
13058;BME280;6595;49.578;11.012;2022-09-02T02:32:34;985.794;;;18.52;88.4
13058;BME280;6595;49.578;11.012;2022-09-02T02:34:34;985.798;;;18.51;88.4
13058;BME280;6595;49.578;11.012;2022-09-02T02:36:33;985.808;;;18.38;88.4
13058;BME280;6595;49.578;11.012;2022-09-02T02:38:35;985.802;;;18.40;88.4
13058;BME280;6595;49.578;11.012;2022-09-02T02:40:35;985.770;;;18.39;88.4
13058;BME280;6595;49.578;11.012;2022-09-02T02:42:34;985.770;;;18.39;88.4
13058;BME280;6595;49.578;11.012;2022-09-02T02:44:33;985.774;;;18.45;88.4
13058;BME280;6595;49.578;11.012;2022-09-02T02:46:34;985.774;;;18.45;88.4
13058;BME280;6595;49.578;11.012;2022-09-02T02:48:34;985.734;;;18.54;88.4
13058;BME280;6595;49.578;11.012;2022-09-02T02:50:34;985.725;;;18.35;88.4
13058;BME280;6595;49.578;11.012;2022-09-02T02:52:34;985.688;;;18.33;88.4
13058;BME280;6595;49.578;11.012;2022-09-02T02:54:34;985.711;;;18.12;88.4
13058;BME280;6595;49.578;11.012;2022-09-02T02:56:34;985.706;;;18.09;88.4
13058;BME280;6595;49.578;11.012;2022-09-02T02:58:34;985.689;;;18.15;88.4
13058;BME280;6595;49.578;11.012;2022-09-02T03:00:36;985.726;;;18.18;88.4
13058;BME280;6595;49.578;11.012;2022-09-02T03:02:34;985.703;;;18.26;88.4
13058;BME280;6595;49.578;11.012;2022-09-02T03:04:34;985.677;;;18.23;88.4
13058;BME280;6595;49.578;11.012;2022-09-02T03:06:35;985.677;;;18.23;88.4
13058;BME280;6595;49.578;11.012;2022-09-02T03:08:36;985.632;;;17.88;88.3
13058;BME280;6595;49.578;11.012;2022-09-02T03:10:34;985.632;;;17.88;88.3
13058;BME280;6595;49.578;11.012;2022-09-02T03:12:34;985.629;;;17.98;88.4
13058;BME280;6595;49.578;11.012;2022-09-02T03:14:34;985.649;;;18.06;88.4
13058;BME280;6595;49.578;11.012;2022-09-02T03:16:34;985.612;;;17.96;88.3
13058;BME280;6595;49.578;11.012;2022-09-02T03:18:34;985.629;;;17.86;88.3
13058;BME280;6595;49.578;11.012;2022-09-02T03:20:34;985.605;;;17.97;88.3
13058;BME280;6595;49.578;11.012;2022-09-02T03:22:35;985.597;;;17.98;88.3
13058;BME280;6595;49.578;11.012;2022-09-02T03:24:34;985.614;;;17.85;88.3
13058;BME280;6595;49.578;11.012;2022-09-02T03:26:34;985.667;;;17.78;88.3
13058;BME280;6595;49.578;11.012;2022-09-02T03:28:34;985.612;;;17.90;88.3
13058;BME280;6595;49.578;11.012;2022-09-02T03:30:35;985.615;;;17.87;88.3
13058;BME280;6595;49.578;11.012;2022-09-02T03:32:34;985.599;;;17.83;88.3
13058;BME280;6595;49.578;11.012;2022-09-02T03:34:33;985.631;;;17.72;88.3
13058;BME280;6595;49.578;11.012;2022-09-02T03:36:35;985.615;;;17.77;88.3
13058;BME280;6595;49.578;11.012;2022-09-02T03:38:33;985.617;;;17.82;88.3
13058;BME280;6595;49.578;11.012;2022-09-02T03:40:34;985.605;;;17.52;88.3
13058;BME280;6595;49.578;11.012;2022-09-02T03:42:34;985.572;;;17.56;88.3
13058;BME280;6595;49.578;11.012;2022-09-02T03:44:34;985.550;;;17.34;88.3
13058;BME280;6595;49.578;11.012;2022-09-02T03:46:34;985.514;;;17.41;88.3
13058;BME280;6595;49.578;11.012;2022-09-02T03:48:34;985.584;;;17.37;88.3
13058;BME280;6595;49.578;11.012;2022-09-02T03:50:37;985.501;;;17.41;88.3
13058;BME280;6595;49.578;11.012;2022-09-02T03:52:34;985.504;;;17.49;88.3
13058;BME280;6595;49.578;11.012;2022-09-02T03:54:34;985.434;;;17.44;88.3
13058;BME280;6595;49.578;11.012;2022-09-02T03:56:34;985.446;;;17.49;88.3
13058;BME280;6595;49.578;11.012;2022-09-02T03:58:34;985.442;;;17.53;88.3
13058;BME280;6595;49.578;11.012;2022-09-02T04:00:35;985.442;;;17.53;88.3
13058;BME280;6595;49.578;11.012;2022-09-02T04:02:33;985.505;;;17.05;88.2
13058;BME280;6595;49.578;11.012;2022-09-02T04:04:34;985.451;;;17.23;88.3
13058;BME280;6595;49.578;11.012;2022-09-02T04:06:34;985.507;;;16.90;88.2
13058;BME280;6595;49.578;11.012;2022-09-02T04:08:34;985.539;;;17.07;88.2
13058;BME280;6595;49.578;11.012;2022-09-02T04:10:34;985.503;;;17.28;88.3
13058;BME280;6595;49.578;11.012;2022-09-02T04:12:34;985.524;;;17.18;88.3
13058;BME280;6595;49.578;11.012;2022-09-02T04:14:34;985.535;;;17.04;88.2
13058;BME280;6595;49.578;11.012;2022-09-02T04:16:34;985.564;;;16.92;88.2
13058;BME280;6595;49.578;11.012;2022-09-02T04:18:34;985.564;;;16.92;88.2
13058;BME280;6595;49.578;11.012;2022-09-02T04:20:36;985.586;;;17.09;88.3
13058;BME280;6595;49.578;11.012;2022-09-02T04:22:34;985.556;;;17.32;88.3
13058;BME280;6595;49.578;11.012;2022-09-02T04:24:34;985.573;;;17.40;88.3
13058;BME280;6595;49.578;11.012;2022-09-02T04:26:34;985.573;;;17.40;88.3
13058;BME280;6595;49.578;11.012;2022-09-02T04:28:34;985.553;;;17.31;88.3
13058;BME280;6595;49.578;11.012;2022-09-02T04:30:36;985.591;;;17.11;88.3
13058;BME280;6595;49.578;11.012;2022-09-02T04:32:35;985.578;;;17.11;88.3
13058;BME280;6595;49.578;11.012;2022-09-02T04:34:34;985.575;;;17.13;88.2
13058;BME280;6595;49.578;11.012;2022-09-02T04:36:33;985.601;;;17.12;88.2
13058;BME280;6595;49.578;11.012;2022-09-02T04:38:34;985.591;;;17.13;88.2
13058;BME280;6595;49.578;11.012;2022-09-02T04:40:35;985.595;;;17.06;88.2
13058;BME280;6595;49.578;11.012;2022-09-02T04:42:34;985.606;;;16.94;88.2
13058;BME280;6595;49.578;11.012;2022-09-02T04:44:34;985.584;;;17.07;88.2
13058;BME280;6595;49.578;11.012;2022-09-02T04:46:34;985.598;;;16.96;88.2
13058;BME280;6595;49.578;11.012;2022-09-02T04:48:34;985.596;;;17.11;88.3
13058;BME280;6595;49.578;11.012;2022-09-02T04:50:35;985.576;;;17.00;88.2
13058;BME280;6595;49.578;11.012;2022-09-02T04:52:34;985.642;;;17.04;88.2
13058;BME280;6595;49.578;11.012;2022-09-02T04:54:34;985.627;;;17.15;88.2
13058;BME280;6595;49.578;11.012;2022-09-02T04:56:35;985.613;;;17.24;88.3
13058;BME280;6595;49.578;11.012;2022-09-02T04:58:33;985.613;;;17.23;88.3
13058;BME280;6595;49.578;11.012;2022-09-02T05:00:35;985.579;;;17.21;88.3
13058;BME280;6595;49.578;11.012;2022-09-02T05:02:33;985.623;;;17.30;88.3
13058;BME280;6595;49.578;11.012;2022-09-02T05:04:33;985.682;;;17.14;88.2
13058;BME280;6595;49.578;11.012;2022-09-02T05:06:35;985.672;;;17.23;88.3
13058;BME280;6595;49.578;11.012;2022-09-02T05:08:35;985.673;;;17.27;88.3
13058;BME280;6595;49.578;11.012;2022-09-02T05:10:33;985.645;;;17.34;88.3
13058;BME280;6595;49.578;11.012;2022-09-02T05:12:34;985.645;;;17.56;88.3
13058;BME280;6595;49.578;11.012;2022-09-02T05:14:34;985.641;;;17.55;88.3
13058;BME280;6595;49.578;11.012;2022-09-02T05:16:36;985.660;;;17.54;88.3
13058;BME280;6595;49.578;11.012;2022-09-02T05:18:34;985.708;;;17.76;88.3
13058;BME280;6595;49.578;11.012;2022-09-02T05:20:36;985.728;;;17.69;88.3
13058;BME280;6595;49.578;11.012;2022-09-02T05:22:34;985.685;;;17.91;88.3
13058;BME280;6595;49.578;11.012;2022-09-02T05:24:33;985.721;;;17.51;88.3
13058;BME280;6595;49.578;11.012;2022-09-02T05:26:35;985.699;;;17.76;88.3
13058;BME280;6595;49.578;11.012;2022-09-02T05:28:33;985.713;;;17.67;88.3
13058;BME280;6595;49.578;11.012;2022-09-02T05:30:35;985.656;;;17.95;88.3
13058;BME280;6595;49.578;11.012;2022-09-02T05:32:34;985.711;;;18.26;88.4
13058;BME280;6595;49.578;11.012;2022-09-02T05:34:34;985.668;;;18.37;88.4
13058;BME280;6595;49.578;11.012;2022-09-02T05:36:34;985.707;;;18.51;88.4
13058;BME280;6595;49.578;11.012;2022-09-02T05:38:34;985.707;;;18.59;88.4
13058;BME280;6595;49.578;11.012;2022-09-02T05:40:35;985.733;;;18.66;88.4
13058;BME280;6595;49.578;11.012;2022-09-02T05:42:33;985.730;;;18.76;88.4
13058;BME280;6595;49.578;11.012;2022-09-02T05:44:34;985.758;;;19.00;88.5
13058;BME280;6595;49.578;11.012;2022-09-02T05:46:35;985.755;;;19.13;88.5
13058;BME280;6595;49.578;11.012;2022-09-02T05:48:44;985.749;;;19.22;88.5
13058;BME280;6595;49.578;11.012;2022-09-02T05:50:33;985.702;;;19.34;88.5
13058;BME280;6595;49.578;11.012;2022-09-02T05:52:34;985.685;;;19.36;88.5
13058;BME280;6595;49.578;11.012;2022-09-02T05:54:36;985.709;;;19.31;88.5
13058;BME280;6595;49.578;11.012;2022-09-02T05:56:34;985.662;;;19.75;88.5
13058;BME280;6595;49.578;11.012;2022-09-02T05:58:33;985.675;;;19.61;88.5
13058;BME280;6595;49.578;11.012;2022-09-02T06:00:33;985.664;;;19.70;88.5
13058;BME280;6595;49.578;11.012;2022-09-02T06:02:34;985.709;;;19.73;88.5
13058;BME280;6595;49.578;11.012;2022-09-02T06:04:36;985.674;;;19.69;88.5
13058;BME280;6595;49.578;11.012;2022-09-02T06:06:34;985.678;;;19.77;88.5
13058;BME280;6595;49.578;11.012;2022-09-02T06:08:34;985.677;;;20.09;88.6
13058;BME280;6595;49.578;11.012;2022-09-02T06:10:39;985.708;;;19.97;88.6
13058;BME280;6595;49.578;11.012;2022-09-02T06:12:33;985.680;;;20.35;88.6
13058;BME280;6595;49.578;11.012;2022-09-02T06:14:34;985.704;;;20.43;88.6
13058;BME280;6595;49.578;11.012;2022-09-02T06:16:34;985.708;;;20.43;88.6
13058;BME280;6595;49.578;11.012;2022-09-02T06:18:34;985.705;;;20.46;88.6
13058;BME280;6595;49.578;11.012;2022-09-02T06:20:33;985.689;;;20.63;88.6
13058;BME280;6595;49.578;11.012;2022-09-02T06:22:34;985.716;;;21.11;88.7
13058;BME280;6595;49.578;11.012;2022-09-02T06:24:34;985.718;;;20.84;88.7
13058;BME280;6595;49.578;11.012;2022-09-02T06:26:34;985.753;;;21.31;88.7
13058;BME280;6595;49.578;11.012;2022-09-02T06:28:34;985.753;;;21.31;88.7
13058;BME280;6595;49.578;11.012;2022-09-02T06:30:36;985.691;;;21.23;88.7
13058;BME280;6595;49.578;11.012;2022-09-02T06:32:33;985.716;;;21.47;88.7
13058;BME280;6595;49.578;11.012;2022-09-02T06:34:34;985.695;;;21.83;88.8
13058;BME280;6595;49.578;11.012;2022-09-02T06:36:36;985.672;;;22.04;88.8
13058;BME280;6595;49.578;11.012;2022-09-02T06:38:35;985.654;;;22.15;88.8
13058;BME280;6595;49.578;11.012;2022-09-02T06:40:34;985.648;;;22.39;88.8
13058;BME280;6595;49.578;11.012;2022-09-02T06:42:33;985.669;;;22.63;88.8
13058;BME280;6595;49.578;11.012;2022-09-02T06:44:33;985.645;;;22.67;88.8
13058;BME280;6595;49.578;11.012;2022-09-02T06:46:35;985.645;;;22.61;88.9
13058;BME280;6595;49.578;11.012;2022-09-02T06:48:34;985.650;;;22.73;88.9
13058;BME280;6595;49.578;11.012;2022-09-02T06:50:36;985.647;;;23.02;88.9
13058;BME280;6595;49.578;11.012;2022-09-02T06:52:34;985.681;;;23.01;88.9
13058;BME280;6595;49.578;11.012;2022-09-02T06:54:34;985.702;;;22.62;88.8
13058;BME280;6595;49.578;11.012;2022-09-02T06:56:34;985.697;;;22.98;88.9
13058;BME280;6595;49.578;11.012;2022-09-02T06:58:33;985.684;;;22.99;88.9
13058;BME280;6595;49.578;11.012;2022-09-02T07:00:35;985.679;;;23.09;88.9
13058;BME280;6595;49.578;11.012;2022-09-02T07:02:34;985.694;;;22.96;88.9
13058;BME280;6595;49.578;11.012;2022-09-02T07:04:43;985.691;;;23.10;88.9
13058;BME280;6595;49.578;11.012;2022-09-02T07:06:36;985.672;;;23.13;88.9
13058;BME280;6595;49.578;11.012;2022-09-02T07:08:35;985.700;;;23.20;88.9
13058;BME280;6595;49.578;11.012;2022-09-02T07:10:36;985.666;;;23.06;88.9
13058;BME280;6595;49.578;11.012;2022-09-02T07:12:34;985.675;;;23.51;88.9
13058;BME280;6595;49.578;11.012;2022-09-02T07:14:35;985.643;;;23.55;88.9
13058;BME280;6595;49.578;11.012;2022-09-02T07:16:36;985.616;;;23.61;89.0
13058;BME280;6595;49.578;11.012;2022-09-02T07:18:34;985.649;;;23.39;88.9
13058;BME280;6595;49.578;11.012;2022-09-02T07:20:34;985.588;;;23.53;88.9
13058;BME280;6595;49.578;11.012;2022-09-02T07:22:34;985.588;;;23.68;89.0
13058;BME280;6595;49.578;11.012;2022-09-02T07:24:34;985.619;;;23.95;89.0
13058;BME280;6595;49.578;11.012;2022-09-02T07:26:34;985.588;;;23.92;89.0
13058;BME280;6595;49.578;11.012;2022-09-02T07:28:34;985.584;;;23.92;89.0
13058;BME280;6595;49.578;11.012;2022-09-02T07:30:33;985.601;;;23.76;89.0
13058;BME280;6595;49.578;11.012;2022-09-02T07:32:34;985.603;;;23.90;89.0
13058;BME280;6595;49.578;11.012;2022-09-02T07:34:33;985.597;;;23.70;89.0
13058;BME280;6595;49.578;11.012;2022-09-02T07:36:35;985.563;;;24.17;89.0
13058;BME280;6595;49.578;11.012;2022-09-02T07:38:33;985.606;;;24.10;89.0
13058;BME280;6595;49.578;11.012;2022-09-02T07:40:35;985.587;;;24.40;89.0
13058;BME280;6595;49.578;11.012;2022-09-02T07:42:34;985.597;;;24.57;89.1
13058;BME280;6595;49.578;11.012;2022-09-02T07:44:33;985.583;;;24.65;89.1
13058;BME280;6595;49.578;11.012;2022-09-02T07:46:35;985.621;;;23.97;89.0
13058;BME280;6595;49.578;11.012;2022-09-02T07:48:34;985.610;;;24.39;89.0
13058;BME280;6595;49.578;11.012;2022-09-02T07:50:35;985.592;;;24.67;89.1
13058;BME280;6595;49.578;11.012;2022-09-02T07:52:34;985.571;;;24.89;89.1
13058;BME280;6595;49.578;11.012;2022-09-02T07:54:34;985.566;;;25.08;89.1
13058;BME280;6595;49.578;11.012;2022-09-02T07:56:34;985.592;;;25.14;89.1
13058;BME280;6595;49.578;11.012;2022-09-02T07:58:34;985.560;;;25.03;89.1
13058;BME280;6595;49.578;11.012;2022-09-02T08:00:34;985.571;;;24.96;89.1
13058;BME280;6595;49.578;11.012;2022-09-02T08:02:34;985.558;;;25.35;89.1
13058;BME280;6595;49.578;11.012;2022-09-02T08:04:34;985.505;;;24.97;89.1
13058;BME280;6595;49.578;11.012;2022-09-02T08:06:35;985.470;;;24.93;89.1
13058;BME280;6595;49.578;11.012;2022-09-02T08:08:34;985.462;;;25.09;89.1
13058;BME280;6595;49.578;11.012;2022-09-02T08:10:34;985.464;;;25.13;89.1
13058;BME280;6595;49.578;11.012;2022-09-02T08:12:33;985.464;;;25.13;89.1
13058;BME280;6595;49.578;11.012;2022-09-02T08:14:35;985.537;;;25.38;89.1
13058;BME280;6595;49.578;11.012;2022-09-02T08:16:34;985.497;;;25.55;89.2
13058;BME280;6595;49.578;11.012;2022-09-02T08:18:34;985.534;;;25.28;89.1
13058;BME280;6595;49.578;11.012;2022-09-02T08:20:34;985.513;;;25.53;89.2
13058;BME280;6595;49.578;11.012;2022-09-02T08:22:34;985.509;;;25.75;89.2
13058;BME280;6595;49.578;11.012;2022-09-02T08:24:35;985.565;;;25.14;89.1
13058;BME280;6595;49.578;11.012;2022-09-02T08:26:36;985.538;;;25.56;89.2
13058;BME280;6595;49.578;11.012;2022-09-02T08:28:34;985.518;;;25.80;89.2
13058;BME280;6595;49.578;11.012;2022-09-02T08:30:34;985.530;;;26.01;89.2
13058;BME280;6595;49.578;11.012;2022-09-02T08:32:34;985.528;;;26.08;89.2
13058;BME280;6595;49.578;11.012;2022-09-02T08:34:34;985.495;;;26.13;89.2
13058;BME280;6595;49.578;11.012;2022-09-02T08:36:34;985.475;;;26.21;89.2
13058;BME280;6595;49.578;11.012;2022-09-02T08:38:34;985.536;;;25.65;89.2
13058;BME280;6595;49.578;11.012;2022-09-02T08:40:39;985.450;;;26.07;89.2
13058;BME280;6595;49.578;11.012;2022-09-02T08:42:41;985.392;;;26.25;89.2
13058;BME280;6595;49.578;11.012;2022-09-02T08:44:35;985.406;;;26.26;89.2
13058;BME280;6595;49.578;11.012;2022-09-02T08:46:36;985.404;;;26.41;89.3
13058;BME280;6595;49.578;11.012;2022-09-02T08:48:42;985.410;;;26.51;89.3
13058;BME280;6595;49.578;11.012;2022-09-02T08:50:34;985.362;;;26.24;89.2
13058;BME280;6595;49.578;11.012;2022-09-02T08:52:38;985.331;;;26.19;89.2
13058;BME280;6595;49.578;11.012;2022-09-02T08:54:40;985.331;;;26.19;89.2
13058;BME280;6595;49.578;11.012;2022-09-02T08:56:33;985.309;;;26.69;89.3
13058;BME280;6595;49.578;11.012;2022-09-02T08:58:38;985.309;;;26.69;89.3
13058;BME280;6595;49.578;11.012;2022-09-02T09:00:34;985.304;;;26.64;89.3
13058;BME280;6595;49.578;11.012;2022-09-02T09:02:43;985.298;;;26.58;89.3
13058;BME280;6595;49.578;11.012;2022-09-02T09:04:51;985.229;;;26.45;89.3
13058;BME280;6595;49.578;11.012;2022-09-02T09:06:40;985.306;;;26.55;89.3
13058;BME280;6595;49.578;11.012;2022-09-02T09:08:38;985.240;;;26.52;89.3
13058;BME280;6595;49.578;11.012;2022-09-02T09:10:39;985.237;;;27.04;89.3
13058;BME280;6595;49.578;11.012;2022-09-02T09:12:46;985.256;;;27.01;89.3
13058;BME280;6595;49.578;11.012;2022-09-02T09:14:41;985.201;;;27.20;89.3
13058;BME280;6595;49.578;11.012;2022-09-02T09:16:39;985.186;;;26.88;89.3
13058;BME280;6595;49.578;11.012;2022-09-02T09:18:39;985.224;;;27.11;89.3
13058;BME280;6595;49.578;11.012;2022-09-02T09:20:36;985.165;;;27.27;89.3
13058;BME280;6595;49.578;11.012;2022-09-02T09:22:36;985.145;;;27.24;89.3
13058;BME280;6595;49.578;11.012;2022-09-02T09:24:37;985.157;;;27.34;89.4
13058;BME280;6595;49.578;11.012;2022-09-02T09:26:37;985.160;;;27.39;89.3
13058;BME280;6595;49.578;11.012;2022-09-02T09:28:38;985.155;;;26.69;89.3
13058;BME280;6595;49.578;11.012;2022-09-02T09:30:34;985.111;;;26.57;89.3
13058;BME280;6595;49.578;11.012;2022-09-02T09:32:36;985.122;;;26.93;89.3
13058;BME280;6595;49.578;11.012;2022-09-02T09:36:46;985.098;;;27.52;89.4
13058;BME280;6595;49.578;11.012;2022-09-02T09:38:37;985.071;;;27.68;89.4
13058;BME280;6595;49.578;11.012;2022-09-02T09:40:37;985.122;;;27.12;89.3
13058;BME280;6595;49.578;11.012;2022-09-02T09:42:42;985.083;;;27.22;89.3
13058;BME280;6595;49.578;11.012;2022-09-02T09:44:46;985.040;;;27.91;89.4
13058;BME280;6595;49.578;11.012;2022-09-02T09:46:35;984.948;;;27.57;89.4
13058;BME280;6595;49.578;11.012;2022-09-02T09:48:37;984.947;;;28.00;89.4
13058;BME280;6595;49.578;11.012;2022-09-02T09:50:34;984.956;;;27.83;89.4
13058;BME280;6595;49.578;11.012;2022-09-02T09:52:35;984.822;;;27.83;89.4
13058;BME280;6595;49.578;11.012;2022-09-02T09:54:35;984.929;;;27.87;89.4
13058;BME280;6595;49.578;11.012;2022-09-02T09:56:37;984.873;;;28.17;89.4
13058;BME280;6595;49.578;11.012;2022-09-02T09:58:41;984.940;;;27.80;89.4
13058;BME280;6595;49.578;11.012;2022-09-02T10:00:37;984.796;;;28.08;89.4
13058;BME280;6595;49.578;11.012;2022-09-02T10:02:36;984.824;;;28.16;89.4
13058;BME280;6595;49.578;11.012;2022-09-02T10:04:36;984.825;;;27.78;89.4
13058;BME280;6595;49.578;11.012;2022-09-02T10:06:47;984.751;;;28.26;89.4
13058;BME280;6595;49.578;11.012;2022-09-02T10:08:35;984.779;;;28.27;89.4
13058;BME280;6595;49.578;11.012;2022-09-02T10:10:35;984.777;;;27.99;89.4
13058;BME280;6595;49.578;11.012;2022-09-02T10:12:40;984.729;;;27.73;89.4
13058;BME280;6595;49.578;11.012;2022-09-02T10:14:36;984.773;;;27.51;89.4
13058;BME280;6595;49.578;11.012;2022-09-02T10:16:50;984.756;;;27.76;89.4
13058;BME280;6595;49.578;11.012;2022-09-02T10:18:41;984.734;;;27.92;89.4
13058;BME280;6595;49.578;11.012;2022-09-02T10:20:51;984.725;;;27.70;89.4
13058;BME280;6595;49.578;11.012;2022-09-02T10:22:48;984.682;;;27.78;89.4
13058;BME280;6595;49.578;11.012;2022-09-02T10:24:50;984.647;;;27.68;89.4
13058;BME280;6595;49.578;11.012;2022-09-02T10:26:41;984.647;;;27.68;89.4
13058;BME280;6595;49.578;11.012;2022-09-02T10:28:57;984.662;;;28.06;89.4
13058;BME280;6595;49.578;11.012;2022-09-02T10:30:36;984.580;;;28.03;89.4
13058;BME280;6595;49.578;11.012;2022-09-02T10:32:46;984.565;;;28.27;89.4
13058;BME280;6595;49.578;11.012;2022-09-02T10:34:40;984.588;;;28.34;89.5
13058;BME280;6595;49.578;11.012;2022-09-02T10:36:37;984.561;;;28.13;89.4
13058;BME280;6595;49.578;11.012;2022-09-02T10:38:41;984.550;;;28.33;89.5
13058;BME280;6595;49.578;11.012;2022-09-02T10:40:41;984.505;;;28.71;89.5
13058;BME280;6595;49.578;11.012;2022-09-02T10:42:43;984.599;;;28.60;89.5
13058;BME280;6595;49.578;11.012;2022-09-02T10:44:38;984.541;;;29.02;89.5
13058;BME280;6595;49.578;11.012;2022-09-02T10:46:37;984.532;;;29.17;89.5
13058;BME280;6595;49.578;11.012;2022-09-02T10:48:42;984.537;;;29.40;89.6
13058;BME280;6595;49.578;11.012;2022-09-02T10:50:38;984.510;;;30.20;89.6
13058;BME280;6595;49.578;11.012;2022-09-02T10:52:46;984.475;;;30.43;89.7
13058;BME280;6595;49.578;11.012;2022-09-02T10:54:44;984.410;;;30.47;89.7